Comendador Levy Gasparian, Brazil
Current Conditions -  °F | °C
As of 12:00 PM on Sunday 21 Dec 2014 (Local Time) from SBGL Reporting Station
Scattered Clouds Scattered Clouds  
Wind Chill: 99°   Ceiling: Unl
Heat Index: 101°   Visibility: 6mi
Dew Point: 64°   Wind: 15mph
Humidity: 32%   Direction: 300°WNW
Pressure: 29.8"   Gusts: NA
Location:  22.03°S, 43.2°W
Report Text: SBGL 211400Z 30013KT 9999 FEW030 SCT100 37/18 Q1009
Loading
Personal Weather Stations






























Interactive Weather Map New forecast layout! Learn more

10-Day Weather Forecast

Advertisements
Track Severe Weather on mobile